createdAt,value
2022-11-29T00:01:39.413Z,6.90
2022-11-29T00:04:06.866Z,6.90
2022-11-29T00:06:34.920Z,6.80
2022-11-29T00:09:06.570Z,6.90
2022-11-29T00:11:56.053Z,6.90
2022-11-29T00:14:24.404Z,7.00
2022-11-29T00:16:54.087Z,7.00
2022-11-29T00:19:22.307Z,7.00
2022-11-29T00:21:49.560Z,7.00
2022-11-29T00:24:16.981Z,6.90
2022-11-29T00:26:44.126Z,6.90
2022-11-29T00:29:13.105Z,6.90
2022-11-29T00:31:41.060Z,6.90
2022-11-29T00:34:10.310Z,6.90
2022-11-29T00:36:37.662Z,6.90
2022-11-29T00:39:06.441Z,6.90
2022-11-29T00:41:33.962Z,6.90
2022-11-29T00:44:01.292Z,6.90
2022-11-29T00:46:28.542Z,7.00
2022-11-29T00:48:55.791Z,7.00
2022-11-29T00:51:23.104Z,7.00
2022-11-29T00:53:50.357Z,7.00
2022-11-29T00:56:17.608Z,7.00
2022-11-29T00:58:44.899Z,7.00
2022-11-29T01:01:12.084Z,6.90
2022-11-29T01:03:39.526Z,6.90
2022-11-29T01:06:15.087Z,6.80
2022-11-29T01:08:42.840Z,6.70
2022-11-29T01:11:21.309Z,6.70
2022-11-29T01:13:49.369Z,6.80
2022-11-29T01:16:17.190Z,6.90
2022-11-29T01:18:44.980Z,7.00
2022-11-29T01:21:15.706Z,7.10
2022-11-29T01:23:43.816Z,7.10
2022-11-29T01:26:17.647Z,7.20
2022-11-29T01:28:48.239Z,7.10
2022-11-29T01:31:21.207Z,7.10
2022-11-29T01:33:48.630Z,7.20
2022-11-29T01:36:15.930Z,7.20
2022-11-29T01:38:43.188Z,7.20
2022-11-29T01:41:16.769Z,7.30
2022-11-29T01:44:05.019Z,7.30
2022-11-29T01:46:35.121Z,7.30
2022-11-29T01:49:07.816Z,7.30
2022-11-29T01:51:37.648Z,7.30
2022-11-29T01:54:06.024Z,7.30
2022-11-29T01:56:34.908Z,7.30
2022-11-29T01:59:09.831Z,7.30
2022-11-29T02:01:37.584Z,7.30
2022-11-29T02:04:06.028Z,7.30
2022-11-29T02:06:34.067Z,7.40
2022-11-29T02:09:01.217Z,7.40
2022-11-29T02:11:47.975Z,7.50
2022-11-29T02:14:21.037Z,7.50
2022-11-29T02:17:06.487Z,7.50
2022-11-29T02:19:55.367Z,7.40
2022-11-29T02:22:51.448Z,7.40
2022-11-29T02:25:47.967Z,7.50
2022-11-29T02:28:42.210Z,7.50
2022-11-29T02:31:18.447Z,7.50
2022-11-29T02:33:54.998Z,7.50
2022-11-29T02:36:34.337Z,7.40
2022-11-29T02:39:37.096Z,7.40
2022-11-29T02:42:04.227Z,7.30
2022-11-29T02:45:00.753Z,7.20
2022-11-29T02:47:37.077Z,7.00
2022-11-29T02:50:28.587Z,6.90
2022-11-29T02:53:04.536Z,6.80
2022-11-29T02:55:44.879Z,6.90
2022-11-29T02:58:27.898Z,6.90
2022-11-29T03:01:11.464Z,6.90
2022-11-29T03:03:55.199Z,6.80
2022-11-29T03:06:43.448Z,6.70
2022-11-29T03:09:25.687Z,6.50
2022-11-29T03:12:00.467Z,6.50
2022-11-29T03:14:46.656Z,6.50
2022-11-29T03:17:28.934Z,6.50
2022-11-29T03:20:06.786Z,6.40
2022-11-29T03:22:42.796Z,6.40
2022-11-29T03:25:16.437Z,6.30
2022-11-29T03:28:06.590Z,6.30
2022-11-29T03:30:37.923Z,6.40
2022-11-29T03:33:33.488Z,6.40
2022-11-29T03:36:29.909Z,6.60
2022-11-29T03:39:03.457Z,6.70
2022-11-29T03:44:35.897Z,6.70
2022-11-29T03:47:14.866Z,6.70
2022-11-29T03:50:03.387Z,6.70
2022-11-29T03:53:02.726Z,6.70
2022-11-29T03:55:58.837Z,6.70
2022-11-29T03:58:44.682Z,6.70
2022-11-29T04:01:20.747Z,6.70
2022-11-29T04:04:03.248Z,6.70
2022-11-29T04:06:48.317Z,6.60
2022-11-29T04:09:52.528Z,6.40
2022-11-29T04:12:59.329Z,6.30
2022-11-29T04:15:41.018Z,6.30
2022-11-29T04:18:20.277Z,6.30
2022-11-29T04:21:02.360Z,6.20
2022-11-29T04:24:00.619Z,6.10
2022-11-29T04:26:46.077Z,6.10
2022-11-29T04:29:30.519Z,6.00
2022-11-29T04:32:00.554Z,6.10
2022-11-29T04:34:57.217Z,6.10
2022-11-29T04:38:06.367Z,6.10
2022-11-29T04:40:39.577Z,6.10
2022-11-29T04:43:34.388Z,6.00
2022-11-29T04:46:29.346Z,6.00
2022-11-29T04:49:01.568Z,5.90
2022-11-29T04:51:51.677Z,5.90
2022-11-29T04:54:37.450Z,5.90
2022-11-29T04:57:27.146Z,6.00
2022-11-29T05:00:07.207Z,6.00
2022-11-29T05:02:54.607Z,6.10
2022-11-29T05:05:43.217Z,6.00
2022-11-29T05:08:52.053Z,6.10
2022-11-29T05:11:37.215Z,6.00
2022-11-29T05:14:43.822Z,5.90
2022-11-29T05:17:26.684Z,5.90
2022-11-29T05:20:14.045Z,5.80
2022-11-29T05:23:22.393Z,5.70
2022-11-29T05:26:01.489Z,5.70
2022-11-29T05:28:31.243Z,5.80
2022-11-29T05:31:12.021Z,5.80
2022-11-29T05:34:17.383Z,5.80
2022-11-29T05:37:03.245Z,5.80
2022-11-29T05:39:41.022Z,5.80
2022-11-29T05:42:33.083Z,5.80
2022-11-29T05:45:21.414Z,5.90
2022-11-29T05:48:10.073Z,6.00
2022-11-29T05:50:47.655Z,6.10
2022-11-29T05:54:03.143Z,6.10
2022-11-29T05:56:51.583Z,6.00
2022-11-29T05:59:23.455Z,6.00
2022-11-29T06:02:12.063Z,6.00
2022-11-29T06:04:57.446Z,6.00
2022-11-29T06:07:55.417Z,5.90
2022-11-29T06:10:32.915Z,5.80
2022-11-29T06:13:15.753Z,5.70
2022-11-29T06:16:04.394Z,5.60
2022-11-29T06:19:05.073Z,5.70
2022-11-29T06:21:36.833Z,5.70
2022-11-29T06:24:25.500Z,5.70
2022-11-29T06:27:18.863Z,5.70
2022-11-29T06:30:04.203Z,5.80
2022-11-29T06:33:02.616Z,5.80
2022-11-29T06:35:35.643Z,5.60
2022-11-29T06:38:23.722Z,5.40
2022-11-29T06:40:53.992Z,5.20
2022-11-29T06:43:27.633Z,5.10
2022-11-29T06:46:20.867Z,5.00
2022-11-29T06:49:24.238Z,5.00
2022-11-29T06:52:15.939Z,4.90
2022-11-29T06:54:46.005Z,4.90
2022-11-29T06:57:24.978Z,4.90
2022-11-29T07:00:09.148Z,5.00
2022-11-29T07:03:03.559Z,5.00
2022-11-29T07:05:33.669Z,5.00
2022-11-29T07:08:15.859Z,5.00
2022-11-29T07:10:44.248Z,5.00
2022-11-29T07:13:15.841Z,4.90
2022-11-29T07:15:47.460Z,4.90
2022-11-29T07:18:48.048Z,4.90
2022-11-29T07:21:48.660Z,4.90
2022-11-29T07:24:34.090Z,4.90
2022-11-29T07:27:25.731Z,4.90
2022-11-29T07:30:14.320Z,4.90
2022-11-29T07:32:54.774Z,4.90
2022-11-29T07:35:43.324Z,4.90
2022-11-29T07:38:28.631Z,4.80
2022-11-29T07:41:29.271Z,4.90
2022-11-29T07:44:28.970Z,4.90
2022-11-29T07:46:56.272Z,4.90
2022-11-29T07:49:23.525Z,4.90
2022-11-29T07:51:50.948Z,4.90
2022-11-29T07:54:20.076Z,5.00
2022-11-29T07:56:47.488Z,5.00
2022-11-29T07:59:14.939Z,5.10
2022-11-29T08:04:23.679Z,5.40
2022-11-29T08:06:50.869Z,5.60
2022-11-29T08:09:18.218Z,5.70
2022-11-29T08:11:45.458Z,5.80
2022-11-29T08:14:12.710Z,5.90
2022-11-29T08:16:39.913Z,6.00
2022-11-29T08:19:07.240Z,6.10
2022-11-29T08:21:34.407Z,6.10
2022-11-29T08:24:01.689Z,6.20
2022-11-29T08:26:31.768Z,6.30
2022-11-29T08:28:59.276Z,6.30
2022-11-29T08:31:26.499Z,6.40
2022-11-29T08:33:53.782Z,6.50
2022-11-29T08:36:21.478Z,6.50
2022-11-29T08:38:48.762Z,6.50
2022-11-29T08:41:17.480Z,6.50
2022-11-29T08:43:45.149Z,6.50
2022-11-29T08:46:17.988Z,6.50
2022-11-29T08:48:46.948Z,6.60
2022-11-29T08:51:14.668Z,6.70
2022-11-29T08:53:41.892Z,6.80
2022-11-29T08:57:10.265Z,6.80
2022-11-29T08:59:08.929Z,6.80
2022-11-29T09:01:36.200Z,6.80
2022-11-29T09:04:03.659Z,6.60
2022-11-29T09:06:34.579Z,6.60
2022-11-29T09:09:02.169Z,6.70
2022-11-29T09:11:30.539Z,6.70
2022-11-29T09:14:00.451Z,6.70
2022-11-29T09:16:29.966Z,6.80
2022-11-29T09:18:57.611Z,6.90
2022-11-29T09:21:26.840Z,6.90
2022-11-29T09:23:59.354Z,7.00
2022-11-29T09:26:32.749Z,7.10
2022-11-29T09:29:05.082Z,7.20
2022-11-29T09:37:01.568Z,7.60
2022-11-29T09:39:28.943Z,7.70
2022-11-29T09:42:12.060Z,7.80
2022-11-29T09:44:45.304Z,7.80
2022-11-29T09:47:31.379Z,7.80
2022-11-29T09:50:34.330Z,7.80
2022-11-29T09:53:10.540Z,7.80
2022-11-29T09:56:12.968Z,7.70
2022-11-29T09:58:57.109Z,7.70
2022-11-29T10:01:49.631Z,7.80
2022-11-29T10:04:32.469Z,7.80
2022-11-29T10:07:11.389Z,7.80
2022-11-29T10:10:09.418Z,7.80
2022-11-29T10:12:46.091Z,7.90
2022-11-29T10:15:27.632Z,7.90
2022-11-29T10:18:33.360Z,8.00
2022-11-29T10:21:09.814Z,8.00
2022-11-29T10:23:43.919Z,8.00
2022-11-29T10:26:12.868Z,8.00
2022-11-29T10:28:47.848Z,8.00
2022-11-29T10:31:36.028Z,8.00
2022-11-29T10:34:12.808Z,8.00
2022-11-29T10:37:09.328Z,8.00
2022-11-29T10:39:59.758Z,8.00
2022-11-29T10:45:50.865Z,8.00
2022-11-29T10:48:21.088Z,8.00
2022-11-29T10:50:50.505Z,8.00
2022-11-29T10:53:21.069Z,8.10
2022-11-29T10:55:55.078Z,8.20
2022-11-29T10:58:28.704Z,8.20
2022-11-29T11:00:56.173Z,8.30
2022-11-29T11:03:43.587Z,8.30
2022-11-29T11:06:43.398Z,8.30
2022-11-29T11:09:25.318Z,8.40
2022-11-29T11:11:55.379Z,8.50
2022-11-29T11:14:28.693Z,8.50
2022-11-29T11:16:56.556Z,8.50
2022-11-29T11:19:34.846Z,8.50
2022-11-29T11:22:04.280Z,8.50
2022-11-29T11:24:35.649Z,8.50
2022-11-29T11:27:03.668Z,8.50
2022-11-29T11:29:44.731Z,8.50
2022-11-29T11:32:19.987Z,8.60
2022-11-29T11:34:55.919Z,8.60
2022-11-29T11:37:35.837Z,8.60
2022-11-29T11:40:29.463Z,8.70
2022-11-29T11:43:02.263Z,8.70
2022-11-29T11:45:36.839Z,8.80
2022-11-29T11:48:12.854Z,8.90
2022-11-29T11:50:56.441Z,8.80
2022-11-29T11:53:28.059Z,8.80
2022-11-29T11:56:12.908Z,8.90
2022-11-29T11:58:58.203Z,9.00
2022-11-29T12:01:36.679Z,9.10
2022-11-29T12:04:30.780Z,9.20
2022-11-29T12:07:05.959Z,9.10
2022-11-29T12:09:54.560Z,9.20
2022-11-29T12:12:31.415Z,9.20
2022-11-29T12:15:10.729Z,9.20
2022-11-29T12:18:03.389Z,9.30
2022-11-29T12:20:43.033Z,9.40
2022-11-29T12:23:13.090Z,9.50
2022-11-29T12:26:00.471Z,9.50
2022-11-29T12:28:31.929Z,9.70
2022-11-29T12:31:11.289Z,9.70
2022-11-29T12:34:04.889Z,9.70
2022-11-29T12:36:59.269Z,9.70
2022-11-29T12:42:39.670Z,9.60
2022-11-29T12:45:28.856Z,9.70
2022-11-29T12:48:05.270Z,9.80
2022-11-29T12:50:38.945Z,9.90
2022-11-29T12:53:27.286Z,10.00
2022-11-29T12:56:13.886Z,10.10
2022-11-29T12:58:53.106Z,10.10
2022-11-29T13:01:20.394Z,10.10
2022-11-29T13:04:10.685Z,10.00
2022-11-29T13:06:42.318Z,10.10
2022-11-29T13:09:39.015Z,10.00
2022-11-29T13:12:46.845Z,10.10
2022-11-29T13:15:42.846Z,10.10
2022-11-29T13:18:16.096Z,10.00
2022-11-29T13:21:14.856Z,10.10
2022-11-29T13:24:12.186Z,10.10
2022-11-29T13:26:41.417Z,10.10
2022-11-29T13:29:15.011Z,10.10
2022-11-29T13:31:43.269Z,10.10
2022-11-29T13:34:47.339Z,10.10
2022-11-29T13:37:26.464Z,10.10
2022-11-29T13:40:14.955Z,10.00
2022-11-29T13:43:01.555Z,9.90
2022-11-29T13:45:44.557Z,9.90
2022-11-29T13:48:48.855Z,10.00
2022-11-29T13:51:35.366Z,10.10
2022-11-29T13:54:24.044Z,10.10
2022-11-29T13:57:06.417Z,10.10
2022-11-29T13:59:36.787Z,10.00
2022-11-29T14:02:14.235Z,10.00
2022-11-29T14:04:46.201Z,10.00
2022-11-29T14:07:19.833Z,10.00
2022-11-29T14:10:07.396Z,10.00
2022-11-29T14:12:56.352Z,10.00
2022-11-29T14:15:31.449Z,9.90
2022-11-29T14:18:03.805Z,9.90
2022-11-29T14:20:44.207Z,9.90
2022-11-29T14:23:16.177Z,9.90
2022-11-29T14:25:55.220Z,9.90
2022-11-29T14:28:28.136Z,9.80
2022-11-29T14:31:01.907Z,9.80
2022-11-29T14:33:56.635Z,9.80
2022-11-29T14:36:23.727Z,9.90
2022-11-29T14:39:15.367Z,9.90
2022-11-29T14:41:51.386Z,9.90
2022-11-29T14:44:24.352Z,9.90
2022-11-29T14:47:17.663Z,9.90
2022-11-29T14:49:45.463Z,9.80
2022-11-29T14:52:15.321Z,9.90
2022-11-29T14:55:04.628Z,9.90
2022-11-29T14:57:50.344Z,9.90
2022-11-29T15:00:20.466Z,9.90
2022-11-29T15:03:15.565Z,10.00
2022-11-29T15:06:14.551Z,10.00
2022-11-29T15:09:06.093Z,10.00
2022-11-29T15:11:52.248Z,10.00
2022-11-29T15:14:47.035Z,10.10
2022-11-29T15:17:28.815Z,10.10
2022-11-29T15:20:00.245Z,10.10
2022-11-29T15:22:45.414Z,10.00
2022-11-29T15:25:16.725Z,10.00
2022-11-29T15:27:52.094Z,9.90
2022-11-29T15:30:31.473Z,9.80
2022-11-29T15:33:01.094Z,9.80
2022-11-29T15:35:28.810Z,9.80
2022-11-29T15:37:56.514Z,9.80
2022-11-29T15:40:31.463Z,9.80
2022-11-29T15:43:33.788Z,9.70
2022-11-29T15:46:01.391Z,9.70
2022-11-29T15:48:30.994Z,9.70
2022-11-29T15:51:16.444Z,9.70
2022-11-29T15:54:11.318Z,9.70
2022-11-29T15:56:54.034Z,9.70
2022-11-29T15:59:42.390Z,9.70
2022-11-29T16:02:34.154Z,9.70
2022-11-29T16:05:29.364Z,9.70
2022-11-29T16:08:12.122Z,9.60
2022-11-29T16:10:47.585Z,9.50
2022-11-29T16:13:35.805Z,9.50
2022-11-29T16:16:08.852Z,9.50
2022-11-29T16:18:37.191Z,9.50
2022-11-29T16:21:07.264Z,9.50
2022-11-29T16:23:43.645Z,9.50
2022-11-29T16:26:35.615Z,9.50
2022-11-29T16:29:03.304Z,9.50
2022-11-29T16:31:38.439Z,9.50
2022-11-29T16:34:15.763Z,9.50
2022-11-29T16:36:42.974Z,9.50
2022-11-29T16:39:26.265Z,9.50
2022-11-29T16:42:21.881Z,9.50
2022-11-29T16:45:29.393Z,9.50
2022-11-29T16:47:59.776Z,9.40
2022-11-29T16:50:28.946Z,9.40
2022-11-29T16:55:56.468Z,9.40
2022-11-29T16:58:23.789Z,9.40
2022-11-29T17:00:51.002Z,9.40
2022-11-29T17:03:18.629Z,9.40
2022-11-29T17:05:45.868Z,9.40
2022-11-29T17:08:13.088Z,9.40
2022-11-29T17:10:40.208Z,9.40
2022-11-29T17:13:13.667Z,9.40
2022-11-29T17:15:40.866Z,9.40
2022-11-29T17:18:08.099Z,9.40
2022-11-29T17:20:35.368Z,9.40
2022-11-29T17:23:02.484Z,9.40
2022-11-29T17:25:29.690Z,9.40
2022-11-29T17:27:58.072Z,9.40
2022-11-29T17:30:25.699Z,9.40
2022-11-29T17:32:52.838Z,9.40
2022-11-29T17:35:20.169Z,9.40
2022-11-29T17:37:47.309Z,9.40
2022-11-29T17:40:15.513Z,9.40
2022-11-29T17:42:42.789Z,9.40
2022-11-29T17:45:10.487Z,9.40
2022-11-29T17:47:37.648Z,9.40
2022-11-29T17:50:05.518Z,9.40
2022-11-29T17:52:32.674Z,9.40
2022-11-29T17:54:59.870Z,9.40
2022-11-29T17:57:27.080Z,9.40
2022-11-29T17:59:54.274Z,9.40
2022-11-29T18:02:21.517Z,9.40
2022-11-29T18:04:48.778Z,9.50
2022-11-29T18:07:17.385Z,9.50
2022-11-29T18:09:46.567Z,9.50
2022-11-29T18:12:13.918Z,9.50
2022-11-29T18:14:41.478Z,9.50
2022-11-29T18:17:08.876Z,9.50
2022-11-29T18:19:36.099Z,9.50
2022-11-29T18:22:03.367Z,9.50
2022-11-29T18:24:30.567Z,9.50
2022-11-29T18:26:57.793Z,9.50
2022-11-29T18:29:25.196Z,9.40
2022-11-29T18:31:52.408Z,9.40
2022-11-29T18:34:19.688Z,9.40
2022-11-29T18:36:49.008Z,9.40
2022-11-29T18:39:19.145Z,9.40
2022-11-29T18:41:50.390Z,9.40
2022-11-29T18:44:20.109Z,9.40
2022-11-29T18:49:29.551Z,9.50
2022-11-29T18:51:56.690Z,9.50
2022-11-29T18:54:23.918Z,9.50
2022-11-29T18:56:51.949Z,9.50
2022-11-29T18:59:19.255Z,9.50
2022-11-29T19:01:48.378Z,9.40
2022-11-29T19:04:18.792Z,9.40
2022-11-29T19:06:46.744Z,9.50
2022-11-29T19:09:21.408Z,9.50
2022-11-29T19:11:49.949Z,9.50
2022-11-29T19:14:17.800Z,9.50
2022-11-29T19:16:46.969Z,9.50
2022-11-29T19:19:14.183Z,9.50
2022-11-29T19:21:42.271Z,9.40
2022-11-29T19:24:15.968Z,9.40
2022-11-29T19:26:45.528Z,9.50
2022-11-29T19:29:16.310Z,9.50
2022-11-29T19:31:43.809Z,9.50
2022-11-29T19:34:11.397Z,9.40
2022-11-29T19:36:43.595Z,9.40
2022-11-29T19:39:13.101Z,9.30
2022-11-29T19:41:43.267Z,9.30
2022-11-29T19:44:11.558Z,9.30
2022-11-29T19:46:42.152Z,9.30
2022-11-29T19:49:10.281Z,9.30
2022-11-29T19:51:37.708Z,9.40
2022-11-29T19:54:08.048Z,9.40
2022-11-29T19:56:35.729Z,9.40
2022-11-29T19:59:02.911Z,9.40
2022-11-29T20:01:39.664Z,9.40
2022-11-29T20:04:08.786Z,9.30
2022-11-29T20:06:36.429Z,9.30
2022-11-29T20:09:04.015Z,9.30
2022-11-29T20:11:31.209Z,9.30
2022-11-29T20:14:00.671Z,9.40
2022-11-29T20:16:29.657Z,9.50
2022-11-29T20:18:59.410Z,9.40
2022-11-29T20:21:29.220Z,9.50
2022-11-29T20:24:01.574Z,9.50
2022-11-29T20:26:30.618Z,9.50
2022-11-29T20:28:57.813Z,9.50
2022-11-29T20:31:25.168Z,9.50
2022-11-29T20:33:54.469Z,9.50
2022-11-29T20:36:59.349Z,9.40
2022-11-29T20:39:35.676Z,9.30
2022-11-29T20:45:09.223Z,9.10
2022-11-29T20:47:52.046Z,9.10
2022-11-29T20:50:23.682Z,9.10
2022-11-29T20:53:11.790Z,9.00
2022-11-29T20:55:44.818Z,9.00
2022-11-29T20:58:13.553Z,9.10
2022-11-29T21:00:40.788Z,9.10
2022-11-29T21:03:07.939Z,9.10
2022-11-29T21:05:37.948Z,9.10
2022-11-29T21:08:05.434Z,9.10
2022-11-29T21:13:15.323Z,9.20
2022-11-29T21:15:43.610Z,9.20
2022-11-29T21:18:26.861Z,9.20
2022-11-29T21:21:06.839Z,9.20
2022-11-29T21:23:44.979Z,9.20
2022-11-29T21:26:20.004Z,9.20
2022-11-29T21:29:07.370Z,9.10
2022-11-29T21:31:34.820Z,9.10
2022-11-29T21:34:02.509Z,9.10
2022-11-29T21:36:30.149Z,9.00
2022-11-29T21:39:00.931Z,9.00
2022-11-29T21:41:32.588Z,9.00
2022-11-29T21:44:07.937Z,9.10
2022-11-29T21:46:35.911Z,9.10
2022-11-29T21:49:03.159Z,9.10
2022-11-29T21:51:30.339Z,9.20
2022-11-29T21:53:57.488Z,9.20
2022-11-29T21:56:24.668Z,9.10
2022-11-29T21:58:51.959Z,9.10
2022-11-29T22:01:20.890Z,9.10
2022-11-29T22:03:48.459Z,9.20
2022-11-29T22:06:18.750Z,9.10
2022-11-29T22:08:46.849Z,9.10
2022-11-29T22:11:37.447Z,9.00
2022-11-29T22:14:15.305Z,9.00
2022-11-29T22:16:52.758Z,8.90
2022-11-29T22:19:39.663Z,8.90
2022-11-29T22:22:09.274Z,8.90
2022-11-29T22:24:37.916Z,8.80
2022-11-29T22:27:05.501Z,8.70
2022-11-29T22:29:32.689Z,8.70
2022-11-29T22:32:01.336Z,8.60
2022-11-29T22:34:28.661Z,8.60
2022-11-29T22:36:56.368Z,8.60
2022-11-29T22:39:24.207Z,8.60
2022-11-29T22:41:54.708Z,8.50
2022-11-29T22:44:23.802Z,8.50
2022-11-29T22:46:51.765Z,8.50
2022-11-29T22:49:19.272Z,8.40
2022-11-29T22:51:46.459Z,8.50
2022-11-29T22:54:17.552Z,8.50
2022-11-29T22:56:46.143Z,8.50
2022-11-29T22:59:13.612Z,8.50
2022-11-29T23:01:41.987Z,8.50
2022-11-29T23:04:10.717Z,8.50
2022-11-29T23:06:40.929Z,8.50
2022-11-29T23:09:17.067Z,8.50
2022-11-29T23:11:46.301Z,8.50
2022-11-29T23:14:13.625Z,8.50
2022-11-29T23:16:41.212Z,8.40
2022-11-29T23:19:08.882Z,8.50
2022-11-29T23:21:39.042Z,8.50
2022-11-29T23:24:06.953Z,8.60
2022-11-29T23:26:39.005Z,8.50
2022-11-29T23:29:08.115Z,8.40
2022-11-29T23:31:35.325Z,8.40
2022-11-29T23:34:03.522Z,8.50
2022-11-29T23:36:31.420Z,8.50
2022-11-29T23:38:58.710Z,8.50
2022-11-29T23:41:25.978Z,8.50
2022-11-29T23:43:53.173Z,8.50
2022-11-29T23:49:04.690Z,8.60
2022-11-29T23:51:31.957Z,8.50
2022-11-29T23:53:59.171Z,8.60
2022-11-29T23:56:26.514Z,8.60
2022-11-29T23:58:53.701Z,8.70
